»·PEaware :: N39921 KDLO-KEMT

N39921 :: KDLO-KEMT

FLIGHT INFORMATION

Flight Status: Arrived
Operator: Privately registered:
United States
More flights under this callsign
Pilot: Nickolaus B. (17683)
Aircraft: PIPER PA-32 SARATOGA
(PA32)
More flights by this aircraft type
Origin: KDLO Delano Mun
United States
Destination: KEMT El Monte
United States
More flights between these airports :: More routes between these airports
Route: +LHS VNY V186 PDZ
File this flight plan on PilotEdge
Remarks: C-D
Altitude:
(Current/Filed)
9,500ft
Speed:
(Current/Filed)
160kts
Departed: 12-Feb-18 09:52 PM
Arrived: 12-Feb-18 10:50 PM
Distance/Time
Traveled:
116nm/0:58
Distance/Time
To Go:
Arrived

Flight Plot

Page will automatically refresh every two minutes.

Flight plan parsing failed; only flown route is shown


Map Options




Map Legend


Flown Route
Filed Route
Departure Airport
Arrival Airport
Navaid (VOR, NDB)
Fix

Horizontal Profiles

Position Reports

Time Latitude Longitude Heading Altitude Ground
Speed
12-Feb-18 21:58 35.690013 -119.221544 153 5164ft 121kts
12-Feb-18 21:59 35.660362 -119.203310 150 6773ft 120kts
12-Feb-18 22:00 35.631340 -119.184593 149 8380ft 119kts
12-Feb-18 22:01 35.603349 -119.166367 150 9493ft 136kts
12-Feb-18 22:02 35.564345 -119.141236 150 9490ft 171kts
12-Feb-18 22:03 35.524989 -119.115677 150 9482ft 176kts
12-Feb-18 22:04 35.483327 -119.088569 150 9477ft 177kts
12-Feb-18 22:05 35.442624 -119.062097 150 9474ft 177kts
12-Feb-18 22:06 35.399377 -119.034001 150 9472ft 177kts
12-Feb-18 22:07 35.356130 -119.005944 149 9472ft 177kts
12-Feb-18 22:08 35.312748 -118.977827 149 9472ft 177kts
12-Feb-18 22:09 35.269624 -118.949912 149 9472ft 176kts
12-Feb-18 22:10 35.226535 -118.922052 149 9472ft 176kts
12-Feb-18 22:11 35.183496 -118.894256 149 9472ft 175kts
12-Feb-18 22:12 35.141662 -118.867270 149 9472ft 175kts
12-Feb-18 22:13 35.098564 -118.839478 149 9224ft 185kts
12-Feb-18 22:14 35.052150 -118.809626 149 8519ft 195kts
12-Feb-18 22:15 35.007796 -118.781151 149 7855ft 195kts
12-Feb-18 22:16 34.961600 -118.751528 149 7471ft 181kts
12-Feb-18 22:17 34.917360 -118.723099 154 7473ft 181kts
12-Feb-18 22:18 34.874643 -118.695848 153 7472ft 185kts
12-Feb-18 22:19 34.830400 -118.667537 153 7490ft 184kts
12-Feb-18 22:20 34.785205 -118.638658 154 7491ft 184kts
12-Feb-18 22:21 34.740848 -118.608655 131 7489ft 187kts
12-Feb-18 22:22 34.760634 -118.563029 66 7844ft 177kts
12-Feb-18 22:23 34.732426 -118.538217 200 8250ft 157kts
12-Feb-18 22:24 34.690558 -118.550803 188 8680ft 157kts
12-Feb-18 22:25 34.648977 -118.544698 176 8997ft 162kts
12-Feb-18 22:26 34.610153 -118.539060 176 9003ft 168kts
12-Feb-18 22:27 34.567898 -118.533352 176 9006ft 168kts
12-Feb-18 22:28 34.529408 -118.528230 176 9007ft 167kts
12-Feb-18 22:29 34.491932 -118.523272 176 9008ft 167kts
12-Feb-18 22:30 34.451816 -118.517981 176 9008ft 167kts
12-Feb-18 22:31 34.413733 -118.512965 176 9009ft 166kts
12-Feb-18 22:32 34.373578 -118.508115 177 9009ft 166kts
12-Feb-18 22:33 34.335746 -118.504319 176 9009ft 166kts
12-Feb-18 22:34 34.305713 -118.500520 173 9009ft 167kts
12-Feb-18 22:35 34.282464 -118.457417 118 9009ft 179kts
12-Feb-18 22:36 34.263529 -118.404224 118 9009ft 180kts
12-Feb-18 22:37 34.244095 -118.351782 117 9008ft 180kts
12-Feb-18 22:38 34.225362 -118.300778 118 9007ft 180kts
12-Feb-18 22:39 34.205276 -118.246023 118 8518ft 186kts
12-Feb-18 22:40 34.185838 -118.194625 122 7802ft 184kts
12-Feb-18 22:41 34.157434 -118.144730 128 7021ft 182kts
12-Feb-18 22:42 34.129796 -118.098704 128 6288ft 183kts
12-Feb-18 22:43 34.100927 -118.051020 128 5533ft 185kts
12-Feb-18 22:44 34.073634 -118.006516 128 4840ft 188kts
12-Feb-18 22:45 34.056866 -117.950442 95 4088ft 185kts
12-Feb-18 22:46 34.052754 -117.897633 94 4022ft 149kts
12-Feb-18 22:47 34.048733 -117.850234 94 4025ft 142kts
12-Feb-18 22:48 34.044694 -117.803957 94 4026ft 141kts
12-Feb-18 22:49 34.069735 -117.788956 316 4029ft 133kts
12-Feb-18 22:50 34.081875 -117.831054 257 3733ft 145kts
12-Feb-18 22:51 34.080003 -117.878498 275 3381ft 143kts
12-Feb-18 22:52 34.084176 -117.921026 288 2592ft 110kts
12-Feb-18 22:53 34.087419 -117.953924 278 1965ft 108kts
12-Feb-18 22:54 34.091335 -117.983198 278 1636ft 87kts
12-Feb-18 22:55 34.095625 -118.008910 282 1047ft 87kts
12-Feb-18 22:56 34.090904 -118.032077 207 357ft 70kts
12-Feb-18 22:57 34.083360 -118.036310 185 283ft 4kts
12-Feb-18 22:58 34.082309 -118.035915 199 284ft 0kts

Navigation Log

Ident Type
Flight plan parsing failed, navigation log unavailable